Home   Weather   India   Yavatmal   Past weeks
Flag for India

Past Weather in Yavatmal, Maharashtra, India — Yesterday and Last 2 Weeks

Currently: 63 °F. Passing clouds. (Weather station: Nagpur Sonegaon, India). See more current weather

Past Weather in Yavatmal — Graph

°F

Yavatmal Temperature Yesterday

Maximum temperature yesterday: 86 °F (at 3:00 pm)
Minimum temperature yesterday: 61 °F (at 6:30 am)
Average temperature yesterday: 74 °F

High & Low Weather Summary for the Past Weeks

 TemperatureHumidityPressure
High86 °F (Nov 29, 4:00 pm)100% (Nov 29, 3:30 am)30.09 "Hg (Nov 29, 3:30 am)
Low54 °F (Nov 27, 6:30 am)32% (Nov 26, 1:00 pm)29.83 "Hg (Nov 27, 3:30 pm)
Average70 °F67%29.97 "Hg
* Reported Nov 22 10:30 pm — Dec 7 10:30 pm, Yavatmal. Weather by CustomWeather, © 2022

Note: Actual official high and low records may vary slightly from our data, if they occured in-between our weather recording intervals... More about our weather records

Yavatmal Weather History for the Previous 24 Hours

Scroll right to see more
 ConditionsComfort  
Time TempWeatherWind HumidityBarometerVisibility
10:30 pm
Wed, Dec 7
63 °FPassing clouds.2 mph64%30.01 "Hg2 mi
10:00 pm64 °FPassing clouds.2 mph64%30.01 "Hg2 mi
9:30 pm64 °FPassing clouds.3 mph64%30.04 "Hg2 mi
9:00 pm66 °FPassing clouds.3 mph60%30.01 "Hg2 mi
8:30 pm66 °FPassing clouds.2 mph60%30.01 "Hg2 mi
8:00 pm70 °FPassing clouds.No wind50%30.01 "Hg2 mi
7:30 pm72 °FPassing clouds.2 mph50%30.01 "Hg2 mi
7:00 pm72 °FHaze.2 mph53%30.01 "Hg2 mi
6:30 pm73 °FHaze.2 mph50%29.98 "Hg2 mi
6:00 pm73 °FHaze.3 mph50%29.98 "Hg2 mi
5:30 pm73 °FScattered clouds.5 mph50%29.95 "Hg2 mi
4:30 pm77 °FPartly sunny.5 mph42%29.92 "Hg2 mi
3:30 pm81 °FPartly sunny.2 mph42%29.92 "Hg2 mi
3:00 pm81 °FPartly sunny.5 mph42%29.92 "Hg2 mi
2:30 pm81 °FScattered clouds.5 mph45%29.92 "Hg2 mi
2:00 pm81 °FScattered clouds.6 mph45%29.95 "Hg2 mi
1:30 pm81 °FScattered clouds.6 mph45%29.95 "Hg2 mi
1:00 pm79 °FScattered clouds.7 mph48%29.95 "Hg2 mi
12:30 pm77 °FScattered clouds.3 mph51%29.98 "Hg2 mi
12:00 pm77 °FScattered clouds.6 mph54%30.01 "Hg2 mi
11:30 am75 °FScattered clouds.7 mph57%30.01 "Hg2 mi
11:00 am75 °FHaze.3 mph50%30.04 "Hg2 mi
10:30 am73 °FHaze.3 mph50%30.04 "Hg2 mi
10:00 am73 °FHaze.2 mph50%30.07 "Hg2 mi
9:30 am72 °FHaze.3 mph57%30.07 "Hg2 mi
9:00 am70 °FHaze.3 mph64%30.07 "Hg2 mi
8:30 am68 °FHaze.2 mph78%30.07 "Hg1 mi
8:00 am66 °FHaze.2 mph83%30.04 "Hg1 mi
7:30 am66 °FHaze.No wind78%30.01 "Hg1 mi
7:00 am64 °FFog.2 mph83%30.01 "Hg1 mi
6:30 am64 °FFog.No wind88%30.01 "Hg1 mi
4:30 am66 °FHaze.No wind83%29.98 "Hg2 mi
3:30 am68 °FHaze.No wind83%29.98 "Hg2 mi
3:00 am66 °FHaze.No wind88%29.98 "Hg2 mi
2:30 am64 °FHaze.No wind88%29.98 "Hg2 mi
2:00 am66 °FHaze.No wind83%29.98 "Hg2 mi
1:30 am66 °FHaze.No wind83%29.98 "Hg2 mi
12:30 am68 °FHaze.No wind78%30.01 "Hg2 mi
12:00 am68 °FHaze.No wind78%30.01 "Hg2 mi
11:30 pm
Tue, Dec 6
70 °FHaze.No wind73%30.01 "Hg2 mi
11:00 pm72 °FHaze.No wind73%30.04 "Hg2 mi
Weather by CustomWeather, © 2022

See weather overview